createdAt,value
2018-01-26T00:00:44.878Z,11.07
2018-01-26T00:03:11.450Z,10.97
2018-01-26T00:05:38.678Z,7.57
2018-01-26T00:08:06.094Z,9.03
2018-01-26T00:10:32.538Z,7.80
2018-01-26T00:12:58.959Z,5.97
2018-01-26T00:15:26.054Z,7.80
2018-01-26T00:17:52.450Z,5.10
2018-01-26T00:20:18.893Z,5.87
2018-01-26T00:22:45.369Z,5.80
2018-01-26T00:25:12.532Z,5.63
2018-01-26T00:27:38.938Z,3.30
2018-01-26T00:30:05.444Z,3.10
2018-01-26T00:32:31.996Z,7.83
2018-01-26T00:34:59.228Z,3.07
2018-01-26T00:37:26.519Z,2.43
2018-01-26T00:39:52.990Z,2.53
2018-01-26T00:42:19.384Z,2.50
2018-01-26T00:44:45.836Z,1.70
2018-01-26T00:47:13.047Z,3.47
2018-01-26T00:49:39.595Z,1.90
2018-01-26T00:52:06.065Z,2.40
2018-01-26T00:54:32.492Z,2.27
2018-01-26T00:56:59.001Z,1.30
2018-01-26T00:59:25.414Z,3.30
2018-01-26T01:01:51.978Z,1.67
2018-01-26T01:04:18.504Z,2.80
2018-01-26T01:06:44.978Z,1.60
2018-01-26T01:09:11.548Z,0.97
2018-01-26T01:11:39.634Z,1.33
2018-01-26T01:14:06.659Z,3.10
2018-01-26T01:16:33.456Z,1.60
2018-01-26T01:19:00.699Z,1.10
2018-01-26T01:21:27.864Z,1.23
2018-01-26T01:23:55.073Z,3.00
2018-01-26T01:26:21.483Z,1.80
2018-01-26T01:28:48.003Z,1.10
2018-01-26T01:31:14.725Z,2.03
2018-01-26T01:33:41.342Z,1.50
2018-01-26T01:36:07.920Z,2.63
2018-01-26T01:38:34.366Z,1.60
2018-01-26T01:41:00.816Z,1.80
2018-01-26T01:43:27.250Z,2.37
2018-01-26T01:45:53.673Z,3.17
2018-01-26T01:48:20.131Z,2.50
2018-01-26T01:50:46.667Z,1.93
2018-01-26T01:53:13.083Z,2.10
2018-01-26T01:55:39.510Z,2.20
2018-01-26T01:58:05.950Z,1.40
2018-01-26T02:00:32.386Z,2.77
2018-01-26T02:03:00.468Z,1.13
2018-01-26T02:05:27.828Z,4.07
2018-01-26T02:07:55.006Z,1.97
2018-01-26T02:10:21.519Z,2.13
2018-01-26T02:12:47.946Z,2.50
2018-01-26T02:15:14.474Z,2.07
2018-01-26T02:17:41.602Z,3.07
2018-01-26T02:20:08.076Z,1.60
2018-01-26T02:22:35.225Z,2.90
2018-01-26T02:25:02.566Z,1.60
2018-01-26T02:27:29.165Z,1.70
2018-01-26T02:29:55.579Z,1.77
2018-01-26T02:32:21.975Z,2.97
2018-01-26T02:34:48.399Z,2.23
2018-01-26T02:37:14.804Z,2.00
2018-01-26T02:39:41.202Z,2.07
2018-01-26T02:42:07.662Z,3.03
2018-01-26T02:44:34.073Z,3.60
2018-01-26T02:47:00.478Z,2.20
2018-01-26T02:49:26.930Z,1.70
2018-01-26T02:51:53.398Z,2.80
2018-01-26T02:54:19.962Z,2.00
2018-01-26T02:56:46.411Z,1.70
2018-01-26T02:59:12.869Z,4.30
2018-01-26T03:01:39.274Z,2.63
2018-01-26T03:04:05.792Z,2.53
2018-01-26T03:06:32.234Z,6.00
2018-01-26T03:08:59.724Z,2.80
2018-01-26T03:11:26.142Z,1.70
2018-01-26T03:13:52.556Z,3.70
2018-01-26T03:16:18.954Z,2.40
2018-01-26T03:18:45.375Z,5.10
2018-01-26T03:21:11.847Z,2.33
2018-01-26T03:23:38.311Z,1.70
2018-01-26T03:26:04.781Z,2.27
2018-01-26T03:28:31.208Z,2.30
2018-01-26T03:30:57.656Z,5.13
2018-01-26T03:33:24.082Z,2.07
2018-01-26T03:35:50.461Z,2.27
2018-01-26T03:38:16.854Z,3.00
2018-01-26T03:40:43.389Z,3.03
2018-01-26T03:43:09.801Z,2.93
2018-01-26T03:45:36.302Z,3.10
2018-01-26T03:48:03.541Z,4.57
2018-01-26T03:50:29.963Z,2.97
2018-01-26T03:52:56.396Z,3.30
2018-01-26T03:55:22.843Z,4.63
2018-01-26T03:57:49.242Z,4.60
2018-01-26T04:00:15.630Z,2.90
2018-01-26T04:02:42.204Z,3.47
2018-01-26T04:05:08.641Z,4.50
2018-01-26T04:07:35.050Z,3.03
2018-01-26T04:10:01.485Z,4.50
2018-01-26T04:12:27.883Z,4.30
2018-01-26T04:14:55.021Z,3.63
2018-01-26T04:17:21.539Z,6.57
2018-01-26T04:19:48.388Z,4.20
2018-01-26T04:22:14.873Z,5.67
2018-01-26T04:24:41.355Z,5.10
2018-01-26T04:27:07.760Z,5.10
2018-01-26T04:29:34.182Z,5.30
2018-01-26T04:32:00.759Z,6.10
2018-01-26T04:34:27.204Z,4.13
2018-01-26T04:36:54.342Z,6.27
2018-01-26T04:39:20.873Z,5.13
2018-01-26T04:41:47.265Z,5.00
2018-01-26T04:44:13.647Z,3.97
2018-01-26T04:46:40.079Z,3.50
2018-01-26T04:49:07.285Z,3.97
2018-01-26T04:51:33.740Z,4.13
2018-01-26T04:54:00.289Z,5.90
2018-01-26T04:56:26.698Z,4.93
2018-01-26T04:58:53.090Z,5.70
2018-01-26T05:01:19.522Z,4.33
2018-01-26T05:03:45.920Z,4.57
2018-01-26T05:06:12.341Z,5.33
2018-01-26T05:08:38.789Z,4.03
2018-01-26T05:11:05.421Z,5.20
2018-01-26T05:13:32.625Z,4.80
2018-01-26T05:15:59.107Z,4.03
2018-01-26T05:18:25.542Z,4.33
2018-01-26T05:20:53.507Z,4.73
2018-01-26T05:23:21.432Z,3.40
2018-01-26T05:25:47.826Z,14.93
2018-01-26T05:28:14.966Z,9.10
2018-01-26T05:30:42.170Z,5.67
2018-01-26T05:33:08.720Z,5.13
2018-01-26T05:35:35.092Z,6.03
2018-01-26T05:38:01.581Z,4.63
2018-01-26T05:40:27.995Z,5.27
2018-01-26T05:42:54.417Z,5.67
2018-01-26T05:45:20.845Z,3.90
2018-01-26T05:47:48.059Z,5.50
2018-01-26T05:50:14.490Z,4.90
2018-01-26T05:52:42.457Z,4.90
2018-01-26T05:55:08.899Z,5.63
2018-01-26T05:57:35.307Z,5.27
2018-01-26T06:00:01.837Z,5.60
2018-01-26T06:02:28.278Z,5.77
2018-01-26T06:04:54.702Z,8.13
2018-01-26T06:07:21.164Z,6.20
2018-01-26T06:09:47.547Z,5.10
2018-01-26T06:12:13.915Z,7.47
2018-01-26T06:14:40.441Z,5.90
2018-01-26T06:17:06.851Z,8.60
2018-01-26T06:19:33.409Z,4.27
2018-01-26T06:21:59.910Z,5.77
2018-01-26T06:24:33.397Z,7.87
2018-01-26T06:26:59.923Z,6.90
2018-01-26T06:29:27.249Z,7.07
2018-01-26T06:31:53.870Z,8.13
2018-01-26T06:34:20.353Z,7.00
2018-01-26T06:36:47.059Z,7.80
2018-01-26T06:39:13.492Z,7.60
2018-01-26T06:41:39.947Z,6.67
2018-01-26T06:44:07.108Z,7.10
2018-01-26T06:46:33.506Z,8.00
2018-01-26T06:48:59.951Z,16.50
2018-01-26T06:51:27.116Z,5.17
2018-01-26T06:53:53.709Z,10.23
2018-01-26T06:56:20.147Z,6.67
2018-01-26T06:58:46.670Z,9.97
2018-01-26T07:01:13.230Z,7.93
2018-01-26T07:03:39.706Z,10.03
2018-01-26T07:06:06.999Z,10.27
2018-01-26T07:08:33.442Z,8.13
2018-01-26T07:10:59.966Z,7.53
2018-01-26T07:13:26.522Z,10.70
2018-01-26T07:15:53.879Z,7.37
2018-01-26T07:18:20.329Z,8.77
2018-01-26T07:20:46.716Z,9.60
2018-01-26T07:23:13.177Z,11.23
2018-01-26T07:25:39.671Z,11.13
2018-01-26T07:28:06.087Z,12.73
2018-01-26T07:30:32.781Z,12.67
2018-01-26T07:32:59.258Z,14.90
2018-01-26T07:35:25.748Z,13.13
2018-01-26T07:37:52.929Z,9.87
2018-01-26T07:40:20.114Z,7.90
2018-01-26T07:42:46.582Z,17.13
2018-01-26T07:45:13.004Z,8.87
2018-01-26T07:47:39.455Z,11.47
2018-01-26T07:50:05.901Z,16.93
2018-01-26T07:52:33.109Z,11.20
2018-01-26T07:54:59.569Z,10.03
2018-01-26T07:57:26.084Z,11.80
2018-01-26T07:59:52.654Z,13.10
2018-01-26T08:02:19.872Z,10.67
2018-01-26T08:04:47.770Z,10.63
2018-01-26T08:07:15.112Z,10.23
2018-01-26T08:09:41.604Z,11.30
2018-01-26T08:12:08.030Z,13.90
2018-01-26T08:14:34.418Z,9.40
2018-01-26T08:17:01.674Z,15.53
2018-01-26T08:19:28.914Z,9.90
2018-01-26T08:21:55.338Z,6.93
2018-01-26T08:24:21.951Z,13.03
2018-01-26T08:26:48.512Z,8.50
2018-01-26T08:29:15.007Z,7.10
2018-01-26T08:31:41.590Z,10.50
2018-01-26T08:34:08.766Z,7.87
2018-01-26T08:36:35.976Z,8.60
2018-01-26T08:39:02.631Z,8.00
2018-01-26T08:41:29.185Z,6.70
2018-01-26T08:43:56.563Z,7.57
2018-01-26T08:46:23.236Z,6.47
2018-01-26T08:48:49.720Z,5.47
2018-01-26T08:51:16.436Z,8.30
2018-01-26T08:53:43.150Z,6.10
2018-01-26T08:56:09.649Z,10.03
2018-01-26T08:58:36.661Z,9.70
2018-01-26T09:01:03.537Z,6.73
2018-01-26T09:03:30.235Z,5.27
2018-01-26T09:05:56.647Z,9.57
2018-01-26T09:08:23.134Z,9.40
2018-01-26T09:10:49.803Z,7.43
2018-01-26T09:13:17.094Z,11.57
2018-01-26T09:15:43.609Z,12.73
2018-01-26T09:18:10.091Z,9.53
2018-01-26T09:20:37.226Z,8.70
2018-01-26T09:23:04.452Z,8.60
2018-01-26T09:25:31.694Z,7.80
2018-01-26T09:27:58.151Z,6.90
2018-01-26T09:30:24.662Z,9.20
2018-01-26T09:32:51.319Z,7.20
2018-01-26T09:35:17.796Z,5.27
2018-01-26T09:37:44.593Z,10.90
2018-01-26T09:40:11.006Z,3.70
2018-01-26T09:42:37.433Z,4.97
2018-01-26T09:45:04.149Z,6.87
2018-01-26T09:47:30.506Z,5.63
2018-01-26T09:49:56.906Z,5.20
2018-01-26T09:52:23.576Z,9.63
2018-01-26T09:54:50.114Z,9.00
2018-01-26T09:57:17.394Z,7.30
2018-01-26T09:59:44.572Z,9.20
2018-01-26T10:02:11.178Z,6.40
2018-01-26T10:04:38.019Z,10.37
2018-01-26T10:07:05.241Z,4.60
2018-01-26T10:09:31.648Z,8.00
2018-01-26T10:11:58.854Z,11.43
2018-01-26T10:14:26.103Z,10.73
2018-01-26T10:16:52.606Z,6.60
2018-01-26T10:19:19.015Z,10.17
2018-01-26T10:21:45.504Z,6.10
2018-01-26T10:24:12.682Z,6.87
2018-01-26T10:26:39.858Z,8.67
2018-01-26T10:29:06.442Z,8.03
2018-01-26T10:31:32.867Z,9.40
2018-01-26T10:33:59.311Z,8.03
2018-01-26T10:36:25.885Z,10.60
2018-01-26T10:38:52.478Z,12.70
2018-01-26T10:41:18.951Z,8.67
2018-01-26T10:43:45.443Z,11.63
2018-01-26T10:46:11.918Z,7.20
2018-01-26T10:48:39.045Z,4.30
2018-01-26T10:51:05.566Z,5.47
2018-01-26T10:53:31.986Z,5.53
2018-01-26T10:55:58.378Z,5.83
2018-01-26T10:58:24.878Z,4.43
2018-01-26T11:00:52.058Z,6.47
2018-01-26T11:03:18.502Z,7.67
2018-01-26T11:05:45.091Z,6.70
2018-01-26T11:08:11.701Z,4.63
2018-01-26T11:10:38.137Z,10.97
2018-01-26T11:13:04.691Z,5.13
2018-01-26T11:15:31.923Z,9.93
2018-01-26T11:17:58.344Z,8.97
2018-01-26T11:20:24.778Z,7.30
2018-01-26T11:22:51.288Z,4.30
2018-01-26T11:25:17.701Z,5.33
2018-01-26T11:27:44.141Z,6.30
2018-01-26T11:30:11.403Z,5.57
2018-01-26T11:32:38.081Z,5.80
2018-01-26T11:35:04.539Z,6.60
2018-01-26T11:37:31.009Z,11.13
2018-01-26T11:39:58.399Z,8.50
2018-01-26T11:42:24.875Z,10.87
2018-01-26T11:44:52.099Z,10.23
2018-01-26T11:47:19.489Z,8.50
2018-01-26T11:49:45.999Z,7.80
2018-01-26T11:52:13.294Z,9.97
2018-01-26T11:54:39.848Z,8.53
2018-01-26T11:57:06.438Z,8.10
2018-01-26T11:59:33.006Z,6.00
2018-01-26T12:01:59.528Z,7.10
2018-01-26T12:04:26.313Z,11.40
2018-01-26T12:06:52.873Z,10.17
2018-01-26T12:09:20.239Z,8.77
2018-01-26T12:11:47.080Z,6.53
2018-01-26T12:14:13.675Z,5.47
2018-01-26T12:16:40.299Z,7.37
2018-01-26T12:19:06.916Z,9.57
2018-01-26T12:21:33.449Z,8.53
2018-01-26T12:23:59.954Z,7.80
2018-01-26T12:26:26.392Z,6.13
2018-01-26T12:28:52.816Z,5.57
2018-01-26T12:31:19.341Z,7.93
2018-01-26T12:33:46.622Z,12.93
2018-01-26T12:36:13.346Z,7.60
2018-01-26T12:38:39.847Z,12.17
2018-01-26T12:41:06.593Z,10.63
2018-01-26T12:43:34.265Z,9.60
2018-01-26T12:46:01.995Z,5.60
2018-01-26T12:48:28.491Z,11.77
2018-01-26T12:50:54.886Z,11.83
2018-01-26T12:53:21.310Z,5.13
2018-01-26T12:55:47.762Z,9.73
2018-01-26T12:58:14.158Z,8.00
2018-01-26T13:00:40.578Z,9.27
2018-01-26T13:03:07.002Z,12.33
2018-01-26T13:05:33.505Z,6.77
2018-01-26T13:07:59.933Z,14.67
2018-01-26T13:10:26.409Z,8.93
2018-01-26T13:12:52.896Z,10.20
2018-01-26T13:15:19.518Z,9.93
2018-01-26T13:17:46.209Z,7.43
2018-01-26T13:20:12.668Z,10.67
2018-01-26T13:22:39.148Z,13.63
2018-01-26T13:25:05.684Z,11.33
2018-01-26T13:27:32.107Z,9.70
2018-01-26T13:29:58.583Z,9.33
2018-01-26T13:32:25.308Z,9.90
2018-01-26T13:34:51.759Z,14.57
2018-01-26T13:37:18.159Z,11.33
2018-01-26T13:39:45.550Z,12.73
2018-01-26T13:42:12.029Z,14.43
2018-01-26T13:44:38.735Z,9.90
2018-01-26T13:47:05.120Z,11.10
2018-01-26T13:49:31.514Z,21.00
2018-01-26T13:51:57.958Z,11.77
2018-01-26T13:54:24.404Z,15.53
2018-01-26T13:56:50.950Z,15.33
2018-01-26T13:59:18.149Z,11.50
2018-01-26T14:01:44.595Z,14.43
2018-01-26T14:04:11.175Z,10.00
2018-01-26T14:06:38.355Z,11.23
2018-01-26T14:09:04.963Z,11.10
2018-01-26T14:11:31.699Z,13.13
2018-01-26T14:13:58.170Z,10.60
2018-01-26T14:16:24.620Z,18.03
2018-01-26T14:18:51.061Z,13.40
2018-01-26T14:21:17.832Z,12.73
2018-01-26T14:23:45.108Z,12.00
2018-01-26T14:26:12.452Z,17.10
2018-01-26T14:28:39.656Z,14.47
2018-01-26T14:31:06.115Z,19.73
2018-01-26T14:33:32.528Z,13.27
2018-01-26T14:35:58.936Z,14.90
2018-01-26T14:38:26.045Z,9.00
2018-01-26T14:40:53.200Z,14.20
2018-01-26T14:43:19.729Z,11.37
2018-01-26T14:45:46.175Z,18.70
2018-01-26T14:48:13.009Z,16.50
2018-01-26T14:50:40.176Z,11.63
2018-01-26T14:53:06.738Z,18.33
2018-01-26T14:55:33.316Z,10.80
2018-01-26T14:58:00.531Z,14.23
2018-01-26T15:00:27.040Z,13.67
2018-01-26T15:02:53.467Z,14.10
2018-01-26T15:05:20.688Z,18.67
2018-01-26T15:07:47.334Z,14.03
2018-01-26T15:10:14.547Z,19.23
2018-01-26T15:12:41.003Z,16.73
2018-01-26T15:15:07.557Z,13.13
2018-01-26T15:17:34.708Z,13.67
2018-01-26T15:20:02.615Z,15.50
2018-01-26T15:22:29.167Z,13.00
2018-01-26T15:24:55.657Z,16.07
2018-01-26T15:27:22.592Z,20.60
2018-01-26T15:29:49.174Z,13.90
2018-01-26T15:32:15.666Z,18.27
2018-01-26T15:34:42.142Z,21.67
2018-01-26T15:37:08.725Z,13.63
2018-01-26T15:39:35.225Z,13.33
2018-01-26T15:42:01.689Z,13.80
2018-01-26T15:44:28.151Z,18.20
2018-01-26T15:46:54.753Z,15.67
2018-01-26T15:49:21.245Z,16.07
2018-01-26T15:51:48.070Z,14.57
2018-01-26T15:54:14.633Z,19.93
2018-01-26T15:56:41.046Z,18.07
2018-01-26T15:59:07.852Z,15.60
2018-01-26T16:01:34.265Z,18.20
2018-01-26T16:04:00.716Z,23.90
2018-01-26T16:06:27.203Z,18.73
2018-01-26T16:08:53.711Z,15.70
2018-01-26T16:11:20.327Z,20.67
2018-01-26T16:13:47.627Z,20.50
2018-01-26T16:16:14.085Z,24.37
2018-01-26T16:18:42.284Z,15.43
2018-01-26T16:21:08.881Z,16.50
2018-01-26T16:23:35.311Z,20.50
2018-01-26T16:26:01.990Z,20.90
2018-01-26T16:28:29.450Z,25.00
2018-01-26T16:30:56.806Z,18.93
2018-01-26T16:33:23.998Z,22.53
2018-01-26T16:35:51.171Z,13.63
2018-01-26T16:38:17.584Z,18.67
2018-01-26T16:40:44.465Z,22.60
2018-01-26T16:43:11.729Z,18.10
2018-01-26T16:45:38.473Z,17.77
2018-01-26T16:48:05.223Z,23.77
2018-01-26T16:50:31.799Z,24.97
2018-01-26T16:52:58.489Z,27.57
2018-01-26T16:55:25.745Z,14.50
2018-01-26T16:57:52.383Z,27.10
2018-01-26T17:00:18.915Z,17.23
2018-01-26T17:02:45.654Z,21.90
2018-01-26T17:05:12.134Z,22.17
2018-01-26T17:07:38.628Z,19.33
2018-01-26T17:10:05.096Z,19.23
2018-01-26T17:12:31.613Z,18.13
2018-01-26T17:14:58.773Z,17.60
2018-01-26T17:17:26.141Z,26.10
2018-01-26T17:19:52.615Z,23.77
2018-01-26T17:22:19.267Z,16.73
2018-01-26T17:24:46.453Z,24.97
2018-01-26T17:27:12.991Z,24.70
2018-01-26T17:29:39.750Z,20.00
2018-01-26T17:32:06.201Z,24.83
2018-01-26T17:34:32.656Z,28.57
2018-01-26T17:36:59.194Z,22.43
2018-01-26T17:39:26.038Z,21.83
2018-01-26T17:41:53.232Z,18.87
2018-01-26T17:44:19.725Z,19.17
2018-01-26T17:46:46.927Z,18.87
2018-01-26T17:49:13.434Z,24.03
2018-01-26T17:51:40.637Z,19.43
2018-01-26T17:54:07.043Z,17.97
2018-01-26T17:56:33.501Z,19.67
2018-01-26T17:59:00.046Z,20.67
2018-01-26T18:01:26.579Z,26.93
2018-01-26T18:03:53.032Z,22.33
2018-01-26T18:06:19.440Z,26.13
2018-01-26T18:08:45.896Z,24.77
2018-01-26T18:11:13.094Z,23.57
2018-01-26T18:13:39.572Z,24.03
2018-01-26T18:16:06.015Z,22.10
2018-01-26T18:18:32.471Z,19.23
2018-01-26T18:20:59.084Z,19.60
2018-01-26T18:23:26.300Z,23.27
2018-01-26T18:25:52.751Z,23.23
2018-01-26T18:28:19.302Z,26.17
2018-01-26T18:30:46.513Z,17.87
2018-01-26T18:33:12.962Z,22.87
2018-01-26T18:35:39.506Z,23.00
2018-01-26T18:38:06.026Z,24.73
2018-01-26T18:40:32.560Z,26.23
2018-01-26T18:42:59.104Z,22.80
2018-01-26T18:45:25.631Z,29.60
2018-01-26T18:47:52.123Z,25.27
2018-01-26T18:50:18.831Z,29.67
2018-01-26T18:52:45.307Z,20.97
2018-01-26T18:55:11.908Z,24.33
2018-01-26T18:57:38.347Z,27.07
2018-01-26T19:00:05.546Z,24.10
2018-01-26T19:02:32.074Z,29.40
2018-01-26T19:04:59.372Z,21.30
2018-01-26T19:07:25.812Z,25.17
2018-01-26T19:09:52.275Z,32.00
2018-01-26T19:12:18.720Z,26.57
2018-01-26T19:14:45.848Z,26.40
2018-01-26T19:17:13.362Z,25.37
2018-01-26T19:19:39.903Z,27.80
2018-01-26T19:22:06.559Z,26.17
2018-01-26T19:24:33.913Z,29.00
2018-01-26T19:27:01.165Z,21.53
2018-01-26T19:29:27.659Z,18.13
2018-01-26T19:31:54.106Z,19.10
2018-01-26T19:34:20.668Z,21.07
2018-01-26T19:36:47.254Z,25.13
2018-01-26T19:39:13.968Z,30.13
2018-01-26T19:41:41.154Z,27.20
2018-01-26T19:44:08.452Z,21.70
2018-01-26T19:46:35.711Z,27.73
2018-01-26T19:49:03.004Z,31.47
2018-01-26T19:51:29.498Z,24.50
2018-01-26T19:53:56.829Z,30.47
2018-01-26T19:56:23.359Z,26.17
2018-01-26T19:58:49.993Z,27.87
2018-01-26T20:01:16.440Z,29.43
2018-01-26T20:03:55.225Z,31.83
2018-01-26T20:09:38.364Z,26.47
2018-01-26T20:12:10.909Z,36.23
2018-01-26T20:14:38.249Z,28.43
2018-01-26T20:17:04.764Z,28.90
2018-01-26T20:19:32.706Z,28.20
2018-01-26T20:21:59.136Z,31.80
2018-01-26T20:24:25.596Z,31.57
2018-01-26T20:26:52.150Z,31.00
2018-01-26T20:29:19.340Z,24.80
2018-01-26T20:31:45.833Z,22.70
2018-01-26T20:34:12.292Z,23.53
2018-01-26T20:36:39.441Z,32.40
2018-01-26T20:39:06.877Z,32.70
2018-01-26T20:41:34.083Z,29.77
2018-01-26T20:44:00.657Z,25.37
2018-01-26T20:46:27.182Z,34.33
2018-01-26T20:48:53.820Z,30.13
2018-01-26T20:51:20.314Z,30.13
2018-01-26T20:53:46.735Z,29.47
2018-01-26T20:56:13.182Z,35.90
2018-01-26T20:58:39.670Z,27.40
2018-01-26T21:01:06.854Z,30.10
2018-01-26T21:03:33.455Z,28.70
2018-01-26T21:05:59.861Z,34.10
2018-01-26T21:08:26.274Z,23.03
2018-01-26T21:10:59.938Z,29.67
2018-01-26T21:13:26.458Z,29.50
2018-01-26T21:15:53.010Z,23.70
2018-01-26T21:18:19.495Z,25.10
2018-01-26T21:20:46.016Z,25.50
2018-01-26T21:23:12.501Z,28.70
2018-01-26T21:25:39.013Z,26.70
2018-01-26T21:28:05.576Z,29.40
2018-01-26T21:30:32.789Z,25.83
2018-01-26T21:32:59.356Z,29.80
2018-01-26T21:35:26.813Z,34.23
2018-01-26T21:37:54.102Z,26.63
2018-01-26T21:40:20.578Z,29.60
2018-01-26T21:42:46.992Z,27.70
2018-01-26T21:45:13.408Z,33.57
2018-01-26T21:47:39.892Z,29.33
2018-01-26T21:50:06.308Z,23.87
2018-01-26T21:52:32.977Z,27.80
2018-01-26T21:55:00.177Z,23.87
2018-01-26T21:57:26.617Z,29.93
2018-01-26T21:59:53.019Z,23.30
2018-01-26T22:02:19.480Z,24.67
2018-01-26T22:07:45.621Z,25.40
2018-01-26T22:10:12.403Z,21.40
2018-01-26T22:12:38.847Z,18.70
2018-01-26T22:15:05.404Z,23.07
2018-01-26T22:17:32.555Z,15.03
2018-01-26T22:19:59.031Z,20.40
2018-01-26T22:22:25.490Z,25.97
2018-01-26T22:24:51.972Z,17.57
2018-01-26T22:27:18.390Z,17.00
2018-01-26T22:29:44.968Z,17.87
2018-01-26T22:32:11.418Z,18.90
2018-01-26T22:34:37.848Z,21.67
2018-01-26T22:37:04.303Z,21.67
2018-01-26T22:39:31.491Z,19.87
2018-01-26T22:41:57.943Z,16.63
2018-01-26T22:44:24.411Z,20.37
2018-01-26T22:46:52.317Z,21.00
2018-01-26T22:49:18.765Z,20.23
2018-01-26T22:51:45.240Z,23.43
2018-01-26T22:54:11.774Z,18.20
2018-01-26T22:56:38.230Z,22.97
2018-01-26T22:59:05.406Z,20.07
2018-01-26T23:01:31.880Z,22.30
2018-01-26T23:03:58.341Z,22.27
2018-01-26T23:06:25.071Z,20.50
2018-01-26T23:08:52.345Z,20.67
2018-01-26T23:11:19.553Z,19.08
2018-01-26T23:13:46.044Z,18.00
2018-01-26T23:16:12.471Z,17.67
2018-01-26T23:18:39.059Z,24.27
2018-01-26T23:21:05.622Z,21.77
2018-01-26T23:23:32.227Z,25.13
2018-01-26T23:25:59.922Z,18.40
2018-01-26T23:28:26.720Z,14.47
2018-01-26T23:30:53.262Z,14.13
2018-01-26T23:33:20.030Z,17.77
2018-01-26T23:35:46.532Z,17.87
2018-01-26T23:38:13.017Z,17.37
2018-01-26T23:40:39.491Z,18.37
2018-01-26T23:43:05.987Z,18.00
2018-01-26T23:45:33.308Z,22.40
2018-01-26T23:47:59.908Z,20.07
2018-01-26T23:50:27.316Z,17.87
2018-01-26T23:52:53.726Z,18.47
2018-01-26T23:55:20.926Z,22.33
2018-01-26T23:57:47.446Z,19.20
